Time;durP1;ratioP1;P1;durP2;ratioP2;P2;SDS_P1;SDS_P2;PMS_P1;PMS_P2;Temp;Humidity;BMP_temperature;BMP_pressure;BME280_temperature;BME280_humidity;BME280_pressure;Samples;Min_cycle;Max_cycle;Signal;HPM_P1;HPM_P2
2023/08/06 00:02:24;;;;;;;4.38;2.22;;;13.60;99.90;;;;;;5071177;28;20028;-51
2023/08/06 00:04:50;;;;;;;3.63;1.98;;;13.70;99.90;;;;;;5071569;28;20461;-55
2023/08/06 00:07:15;;;;;;;2.78;1.65;;;13.60;99.90;;;;;;5071267;28;20161;-51
2023/08/06 00:09:41;;;;;;;3.95;1.95;;;13.70;99.90;;;;;;5071243;28;20133;-51
2023/08/06 00:12:07;;;;;;;3.92;2.10;;;13.70;99.90;;;;;;5071412;28;20036;-50
2023/08/06 00:14:33;;;;;;;4.60;2.20;;;13.70;99.90;;;;;;5071346;28;20020;-52
2023/08/06 00:16:58;;;;;;;3.65;2.15;;;13.70;99.90;;;;;;5071302;28;20138;-51
2023/08/06 00:19:24;;;;;;;3.08;1.70;;;13.70;99.90;;;;;;5071130;28;20380;-51
2023/08/06 00:21:49;;;;;;;5.45;2.13;;;13.70;99.90;;;;;;5071246;28;20507;-50
2023/08/06 00:24:15;;;;;;;3.20;1.80;;;13.80;99.90;;;;;;5071134;28;20083;-49
2023/08/06 00:26:40;;;;;;;7.50;2.10;;;13.70;99.90;;;;;;5070766;28;20028;-50
2023/08/06 00:29:06;;;;;;;4.30;1.80;;;13.80;99.90;;;;;;5070892;28;20024;-48
2023/08/06 00:31:32;;;;;;;3.42;1.83;;;13.70;99.90;;;;;;5070539;28;20481;-47
2023/08/06 00:33:57;;;;;;;3.90;1.58;;;13.80;99.90;;;;;;5070562;28;20036;-46
2023/08/06 00:36:23;;;;;;;2.72;1.45;;;13.80;99.90;;;;;;5068904;28;20032;-46
2023/08/06 00:38:48;;;;;;;3.15;1.63;;;13.70;99.90;;;;;;5070408;28;20364;-50
2023/08/06 00:41:14;;;;;;;4.28;1.60;;;13.70;99.90;;;;;;5070501;28;20111;-48
2023/08/06 00:43:40;;;;;;;5.55;1.77;;;13.70;99.90;;;;;;5070099;28;20386;-57
2023/08/06 00:46:06;;;;;;;4.72;1.55;;;13.70;99.90;;;;;;5070293;28;20031;-52
2023/08/06 00:48:32;;;;;;;2.85;1.58;;;13.70;99.90;;;;;;5070189;28;20037;-53
2023/08/06 00:50:58;;;;;;;6.22;1.52;;;13.70;99.90;;;;;;5069979;28;20388;-52
2023/08/06 00:53:24;;;;;;;4.07;1.52;;;13.80;99.90;;;;;;5069969;28;20048;-51
2023/08/06 00:55:50;;;;;;;2.30;1.30;;;13.70;99.90;;;;;;5069852;28;20032;-47
2023/08/06 00:58:16;;;;;;;2.30;1.25;;;13.70;99.90;;;;;;5070214;28;20111;-49
2023/08/06 01:00:42;;;;;;;2.40;1.35;;;13.80;99.90;;;;;;5069778;28;20111;-52
2023/08/06 01:03:08;;;;;;;2.60;1.20;;;13.80;99.90;;;;;;5070047;28;20024;-49
2023/08/06 01:05:34;;;;;;;3.30;1.33;;;13.80;99.90;;;;;;5066703;28;20070;-53
2023/08/06 01:08:34;;;;;;;2.50;1.00;;;13.80;99.90;;;;;;5069795;28;20050;-49
2023/08/06 01:11:44;;;;;;;4.18;1.20;;;13.80;99.90;;;;;;5058494;28;20031;-48
2023/08/06 01:14:21;;;;;;;3.00;1.23;;;13.70;99.90;;;;;;5063987;28;20105;-47
2023/08/06 01:16:48;;;;;;;1.83;1.05;;;13.70;99.90;;;;;;5057304;28;20021;-49
2023/08/06 01:19:20;;;;;;;1.92;1.02;;;13.70;99.90;;;;;;5069764;28;20044;-50
2023/08/06 01:21:45;;;;;;;1.92;1.27;;;13.70;99.90;;;;;;5069634;28;20446;-48
2023/08/06 01:24:11;;;;;;;2.67;1.15;;;13.60;99.90;;;;;;5069909;28;20050;-49
2023/08/06 01:27:00;;;;;;;2.38;1.20;;;13.60;99.90;;;;;;5069534;28;20431;-50
2023/08/06 01:29:31;;;;;;;2.80;1.10;;;13.60;99.90;;;;;;5068516;28;20055;-47
2023/08/06 01:31:58;;;;;;;2.53;1.00;;;13.60;99.90;;;;;;5069799;28;20037;-49
2023/08/06 01:34:26;;;;;;;2.75;1.13;;;13.60;99.90;;;;;;5069909;28;20045;-51
2023/08/06 01:36:52;;;;;;;5.88;1.30;;;13.60;99.90;;;;;;5069501;28;20040;-53
2023/08/06 01:39:20;;;;;;;2.22;1.05;;;13.50;99.90;;;;;;5069542;28;20039;-48
2023/08/06 01:41:47;;;;;;;5.28;1.20;;;13.60;99.90;;;;;;5069655;28;20040;-52
2023/08/06 01:44:13;;;;;;;2.45;1.00;;;13.50;99.90;;;;;;5069586;28;20430;-49
2023/08/06 01:46:39;;;;;;;3.70;1.20;;;13.50;99.90;;;;;;5069564;28;20146;-57
2023/08/06 01:49:04;;;;;;;1.58;1.00;;;13.40;99.90;;;;;;5069641;28;20138;-48
2023/08/06 01:51:30;;;;;;;2.83;1.13;;;13.30;99.90;;;;;;5069410;28;20127;-53
2023/08/06 01:53:55;;;;;;;2.30;1.23;;;13.20;99.90;;;;;;5069508;28;20028;-54
2023/08/06 01:56:21;;;;;;;4.15;0.90;;;13.10;99.90;;;;;;5069457;28;20025;-51
2023/08/06 01:58:47;;;;;;;4.80;1.48;;;13.10;99.90;;;;;;5069401;28;20024;-53
2023/08/06 02:01:12;;;;;;;3.80;1.42;;;13.00;99.90;;;;;;5069613;28;20435;-55
2023/08/06 02:03:38;;;;;;;2.70;1.00;;;13.00;99.90;;;;;;5069460;28;20435;-49
2023/08/06 02:06:03;;;;;;;2.35;1.00;;;12.90;99.90;;;;;;5070113;28;20428;-53
2023/08/06 02:08:29;;;;;;;3.42;1.30;;;12.90;99.90;;;;;;5073321;28;20026;-51
2023/08/06 02:10:55;;;;;;;3.97;1.10;;;12.90;99.90;;;;;;5073065;28;20035;-54
2023/08/06 02:13:20;;;;;;;2.92;1.00;;;12.80;99.90;;;;;;5073406;28;20052;-51
2023/08/06 02:15:49;;;;;;;2.97;1.77;;;12.70;99.90;;;;;;5073271;28;20078;-52
2023/08/06 02:18:15;;;;;;;3.53;1.20;;;12.60;99.90;;;;;;5073578;28;20048;-52
2023/08/06 02:20:42;;;;;;;3.25;1.17;;;12.60;99.90;;;;;;5073274;28;20032;-51
2023/08/06 02:23:07;;;;;;;3.95;1.33;;;12.60;99.90;;;;;;5073294;28;20032;-52
2023/08/06 02:25:33;;;;;;;3.95;1.42;;;12.60;99.90;;;;;;5073590;28;20036;-50
2023/08/06 02:27:59;;;;;;;3.03;1.65;;;12.60;99.90;;;;;;5073075;28;20447;-51
2023/08/06 02:30:25;;;;;;;5.15;1.75;;;12.60;99.90;;;;;;5073065;28;20435;-51
2023/08/06 02:32:50;;;;;;;3.72;1.35;;;12.60;99.90;;;;;;5072643;28;20040;-55
2023/08/06 02:35:16;;;;;;;2.70;1.50;;;12.50;99.90;;;;;;5072789;28;20066;-54
2023/08/06 02:37:41;;;;;;;3.95;1.50;;;12.50;99.90;;;;;;5072699;28;20032;-49
2023/08/06 02:40:08;;;;;;;3.47;1.48;;;12.50;99.90;;;;;;5072717;28;20024;-48
2023/08/06 02:42:33;;;;;;;2.85;1.40;;;12.40;99.90;;;;;;5072815;28;20035;-53
2023/08/06 02:44:59;;;;;;;3.25;1.30;;;12.40;99.90;;;;;;5072590;28;20032;-52
2023/08/06 02:47:24;;;;;;;3.65;1.80;;;12.50;99.90;;;;;;5071481;28;20040;-55
2023/08/06 02:49:50;;;;;;;5.55;1.45;;;12.40;99.90;;;;;;5058429;28;20450;-52
2023/08/06 02:52:15;;;;;;;4.85;1.73;;;12.40;99.90;;;;;;5072525;28;20036;-54
2023/08/06 02:54:42;;;;;;;3.75;1.40;;;12.40;99.90;;;;;;5072618;28;20025;-50
2023/08/06 02:57:07;;;;;;;2.67;1.70;;;12.50;99.90;;;;;;5072511;28;20079;-55
2023/08/06 02:59:33;;;;;;;4.72;1.40;;;12.40;99.90;;;;;;5072389;28;20491;-54
2023/08/06 03:01:59;;;;;;;4.53;1.67;;;12.40;99.90;;;;;;5072205;28;20123;-54
2023/08/06 03:04:24;;;;;;;4.72;1.60;;;12.40;99.90;;;;;;5072321;28;20309;-51
2023/08/06 03:06:50;;;;;;;4.00;1.50;;;12.40;99.90;;;;;;5072250;28;20033;-48
2023/08/06 03:09:17;;;;;;;3.83;1.83;;;12.50;99.90;;;;;;5072398;28;20230;-47
2023/08/06 03:11:42;;;;;;;3.10;1.27;;;12.40;99.90;;;;;;5072310;28;20098;-51
2023/08/06 03:14:08;;;;;;;3.35;1.70;;;12.40;99.90;;;;;;5071962;28;20480;-51
2023/08/06 03:16:34;;;;;;;2.95;1.60;;;12.40;99.90;;;;;;5071848;28;20032;-53
2023/08/06 03:19:00;;;;;;;3.20;1.42;;;12.30;99.90;;;;;;5058220;28;20036;-51
2023/08/06 03:21:26;;;;;;;2.70;1.30;;;12.30;99.90;;;;;;5072274;28;20019;-48
2023/08/06 03:23:51;;;;;;;4.15;1.55;;;12.30;99.90;;;;;;5072312;28;20177;-49
2023/08/06 03:26:17;;;;;;;6.85;1.75;;;12.30;99.90;;;;;;5072002;28;20414;-48
2023/08/06 03:28:43;;;;;;;3.63;1.27;;;12.20;99.90;;;;;;5071968;28;20054;-50
2023/08/06 03:31:08;;;;;;;4.13;1.30;;;12.20;99.90;;;;;;5071747;28;20028;-55
2023/08/06 03:33:34;;;;;;;4.65;1.20;;;12.10;99.90;;;;;;5071697;28;20029;-53
2023/08/06 03:36:00;;;;;;;3.22;1.42;;;12.10;99.90;;;;;;5071690;28;20060;-57
2023/08/06 03:38:25;;;;;;;5.05;1.25;;;12.10;99.90;;;;;;5071657;28;20098;-49
2023/08/06 03:40:51;;;;;;;3.90;1.45;;;12.00;99.90;;;;;;5071748;28;20385;-51
2023/08/06 03:43:17;;;;;;;5.38;1.27;;;12.00;99.90;;;;;;5071548;28;20033;-52
2023/08/06 03:45:42;;;;;;;5.20;1.30;;;12.00;99.90;;;;;;5071474;28;20104;-47
2023/08/06 03:48:08;;;;;;;5.35;1.30;;;11.90;99.90;;;;;;5071474;28;20024;-50
2023/08/06 03:50:35;;;;;;;3.78;1.35;;;11.90;99.90;;;;;;5070054;28;20120;-55
2023/08/06 03:53:00;;;;;;;3.28;1.52;;;11.80;99.90;;;;;;5071636;28;20040;-49
2023/08/06 03:55:26;;;;;;;3.38;1.30;;;11.80;99.90;;;;;;5071229;28;20017;-56
2023/08/06 03:57:52;;;;;;;3.97;1.58;;;11.80;99.90;;;;;;5059528;28;20104;-54
2023/08/06 04:00:18;;;;;;;2.22;1.10;;;11.80;99.90;;;;;;5068870;28;20480;-54
2023/08/06 04:02:43;;;;;;;3.38;1.33;;;11.80;99.90;;;;;;5071037;28;20032;-51
2023/08/06 04:05:09;;;;;;;2.45;1.27;;;11.80;99.90;;;;;;5070892;28;20031;-50
2023/08/06 04:07:35;;;;;;;2.00;1.05;;;11.70;99.90;;;;;;5071279;28;20029;-52
2023/08/06 04:10:02;;;;;;;4.65;1.65;;;11.70;99.90;;;;;;5070871;28;20031;-47
2023/08/06 04:12:28;;;;;;;5.50;1.38;;;11.70;99.90;;;;;;5070820;28;20186;-51
2023/08/06 04:14:55;;;;;;;3.85;1.48;;;11.70;99.90;;;;;;5070947;28;20044;-49
2023/08/06 04:17:21;;;;;;;1.88;1.20;;;11.60;99.90;;;;;;5070773;28;20408;-52
2023/08/06 04:19:49;;;;;;;5.45;1.40;;;11.60;99.90;;;;;;5070785;28;20017;-49
2023/08/06 04:22:15;;;;;;;3.10;1.40;;;11.60;99.90;;;;;;5070749;28;20136;-53
2023/08/06 04:24:42;;;;;;;4.28;1.20;;;11.60;99.90;;;;;;5070428;28;20501;-51
2023/08/06 04:27:09;;;;;;;2.83;1.35;;;11.50;99.90;;;;;;5070312;28;20024;-49
2023/08/06 04:29:35;;;;;;;5.07;1.48;;;11.50;99.90;;;;;;5069548;28;20485;-54
2023/08/06 04:32:00;;;;;;;2.28;1.42;;;11.50;99.90;;;;;;5070269;28;20138;-57
2023/08/06 04:34:26;;;;;;;3.65;1.67;;;11.50;99.90;;;;;;5070064;28;20128;-50
2023/08/06 04:36:51;;;;;;;3.20;1.45;;;11.50;99.90;;;;;;5070392;28;20095;-50
2023/08/06 04:39:17;;;;;;;4.65;1.42;;;11.40;99.90;;;;;;5070433;28;20486;-48
2023/08/06 04:41:43;;;;;;;3.28;1.50;;;11.50;99.90;;;;;;5070150;28;20110;-50
2023/08/06 04:44:08;;;;;;;4.63;1.42;;;11.50;99.90;;;;;;5070125;28;20090;-53
2023/08/06 04:46:34;;;;;;;7.43;1.70;;;11.50;99.90;;;;;;5070107;28;20102;-54
2023/08/06 04:48:59;;;;;;;2.85;1.42;;;11.50;99.90;;;;;;5069992;28;20033;-54
2023/08/06 04:51:25;;;;;;;6.93;1.95;;;11.50;99.90;;;;;;5069986;28;20029;-48
2023/08/06 04:53:51;;;;;;;2.80;1.60;;;11.40;99.90;;;;;;5070110;28;20028;-49
2023/08/06 04:56:16;;;;;;;2.90;1.60;;;11.50;99.90;;;;;;5070051;28;20040;-46
2023/08/06 04:58:42;;;;;;;2.92;1.27;;;11.50;99.90;;;;;;5069920;28;20024;-46
2023/08/06 05:01:07;;;;;;;2.80;1.40;;;11.50;99.90;;;;;;5070037;28;20032;-54
2023/08/06 05:03:33;;;;;;;3.03;1.50;;;11.50;99.90;;;;;;5069745;28;20117;-53
2023/08/06 05:05:58;;;;;;;3.70;1.58;;;11.50;99.90;;;;;;5069978;28;20103;-52
2023/08/06 05:08:24;;;;;;;3.03;1.42;;;11.50;99.90;;;;;;5069865;28;20116;-51
2023/08/06 05:10:50;;;;;;;6.63;1.50;;;11.50;99.90;;;;;;5069800;28;20044;-47
2023/08/06 05:13:15;;;;;;;5.88;1.50;;;11.50;99.90;;;;;;5069701;28;20106;-52
2023/08/06 05:15:42;;;;;;;3.90;1.40;;;11.60;99.90;;;;;;5069549;28;20096;-46
2023/08/06 05:18:08;;;;;;;4.18;1.58;;;11.60;99.90;;;;;;5069972;28;20028;-51
2023/08/06 05:20:38;;;;;;;4.90;1.40;;;11.60;99.90;;;;;;5069729;28;20025;-52
2023/08/06 05:23:04;;;;;;;3.40;1.60;;;11.60;99.90;;;;;;5069805;28;20099;-53
2023/08/06 05:25:30;;;;;;;6.53;1.70;;;11.50;99.90;;;;;;5069738;28;20115;-51
2023/08/06 05:27:55;;;;;;;2.92;1.55;;;11.60;99.90;;;;;;5069589;28;20116;-55
2023/08/06 05:30:21;;;;;;;3.00;1.88;;;11.60;99.90;;;;;;5069766;28;20448;-55
2023/08/06 05:32:47;;;;;;;3.25;1.23;;;11.70;99.90;;;;;;5069439;28;20037;-51
2023/08/06 05:35:12;;;;;;;4.80;1.92;;;11.70;99.90;;;;;;5069536;28;20101;-56
2023/08/06 05:37:38;;;;;;;3.47;1.83;;;11.70;99.90;;;;;;5069804;28;20044;-50
2023/08/06 05:40:04;;;;;;;2.88;1.40;;;11.80;99.90;;;;;;5070260;28;20174;-52
2023/08/06 05:42:30;;;;;;;2.33;1.27;;;11.80;99.90;;;;;;5073758;28;20144;-47
2023/08/06 05:44:56;;;;;;;3.35;1.73;;;11.80;99.90;;;;;;5073702;28;20101;-53
2023/08/06 05:47:21;;;;;;;3.33;1.70;;;11.90;99.90;;;;;;5073775;28;20024;-48
2023/08/06 05:49:47;;;;;;;2.60;1.33;;;12.00;99.90;;;;;;5073104;28;20157;-53
2023/08/06 05:52:13;;;;;;;3.25;1.35;;;12.00;99.90;;;;;;5073132;28;20036;-48
2023/08/06 05:54:40;;;;;;;5.32;1.17;;;12.10;99.90;;;;;;5073133;28;20118;-49
2023/08/06 05:57:06;;;;;;;2.60;1.35;;;12.20;99.90;;;;;;5072988;28;20032;-51
2023/08/06 05:59:31;;;;;;;6.07;1.50;;;12.30;99.90;;;;;;5073308;28;20403;-53
2023/08/06 06:01:57;;;;;;;4.30;1.10;;;12.70;99.90;;;;;;5073218;28;20115;-50
2023/08/06 06:04:23;;;;;;;5.80;1.52;;;13.00;99.90;;;;;;5073026;28;20504;-49
2023/08/06 06:06:48;;;;;;;2.33;1.30;;;13.50;99.90;;;;;;5073039;28;20516;-50
2023/08/06 06:09:14;;;;;;;7.05;1.80;;;14.10;99.90;;;;;;5073092;28;20020;-48
2023/08/06 06:11:39;;;;;;;3.55;1.48;;;14.70;99.90;;;;;;5072672;28;20029;-50
2023/08/06 06:14:05;;;;;;;5.28;1.63;;;15.10;99.90;;;;;;5072751;28;20045;-46
2023/08/06 06:16:31;;;;;;;2.63;1.25;;;15.40;99.90;;;;;;5072958;28;20118;-47
2023/08/06 06:18:57;;;;;;;2.83;1.30;;;15.90;99.90;;;;;;5073144;28;20081;-46
2023/08/06 06:21:23;;;;;;;2.85;1.25;;;16.20;99.90;;;;;;5073020;28;20021;-50
2023/08/06 06:23:51;;;;;;;3.47;1.38;;;16.50;99.90;;;;;;5072861;28;20111;-48
2023/08/06 06:26:17;;;;;;;2.28;1.20;;;16.60;99.90;;;;;;5072887;28;20085;-49
2023/08/06 06:28:42;;;;;;;3.28;1.00;;;16.90;99.90;;;;;;5072894;28;20393;-54
2023/08/06 06:31:09;;;;;;;2.35;1.20;;;17.30;99.90;;;;;;5072811;28;20089;-46
2023/08/06 06:33:34;;;;;;;1.50;0.88;;;17.70;99.90;;;;;;5072875;28;20033;-52
2023/08/06 06:36:03;;;;;;;3.25;1.60;;;18.20;99.90;;;;;;5072864;28;20025;-46
2023/08/06 06:38:28;;;;;;;2.95;1.30;;;18.70;99.90;;;;;;5072862;28;20036;-52
2023/08/06 06:40:55;;;;;;;2.92;1.67;;;19.10;99.90;;;;;;5072514;28;20028;-49
2023/08/06 06:43:21;;;;;;;1.73;0.90;;;19.60;99.90;;;;;;5072307;28;20347;-52
2023/08/06 06:45:47;;;;;;;1.23;0.80;;;19.90;99.90;;;;;;5072427;28;20444;-46
2023/08/06 06:48:12;;;;;;;2.33;1.00;;;20.20;99.90;;;;;;5072531;28;20021;-46
2023/08/06 06:50:39;;;;;;;1.75;0.73;;;20.50;99.90;;;;;;5072634;28;20421;-46
2023/08/06 06:53:04;;;;;;;1.60;0.80;;;20.70;99.90;;;;;;5071515;28;20036;-46
2023/08/06 06:55:30;;;;;;;1.88;1.02;;;20.70;99.90;;;;;;5072424;28;20024;-46
2023/08/06 06:57:56;;;;;;;2.35;0.95;;;20.90;99.90;;;;;;5072313;28;20040;-49
2023/08/06 07:00:21;;;;;;;1.75;0.77;;;21.00;99.90;;;;;;5072111;28;20016;-46
2023/08/06 07:02:47;;;;;;;3.17;1.13;;;21.00;99.90;;;;;;5072270;28;20032;-47
2023/08/06 07:05:12;;;;;;;3.13;1.17;;;21.20;99.90;;;;;;5072329;28;20031;-45
2023/08/06 07:07:38;;;;;;;1.48;0.80;;;21.40;99.90;;;;;;5072142;28;20029;-47
2023/08/06 07:10:04;;;;;;;1.33;0.80;;;21.70;99.90;;;;;;5071999;28;20029;-45
2023/08/06 07:12:30;;;;;;;2.42;0.80;;;22.00;99.90;;;;;;5071945;28;20048;-47
2023/08/06 07:14:55;;;;;;;1.90;0.80;;;22.30;99.90;;;;;;5071987;28;20025;-47
2023/08/06 07:17:21;;;;;;;2.97;1.00;;;22.50;99.90;;;;;;5071983;28;20028;-46
2023/08/06 07:19:46;;;;;;;1.75;1.00;;;22.30;99.90;;;;;;5070762;28;20085;-46
2023/08/06 07:22:12;;;;;;;3.25;1.00;;;22.70;99.90;;;;;;5072071;28;20021;-46
2023/08/06 07:24:38;;;;;;;1.58;0.98;;;22.80;99.90;;;;;;5071690;28;20031;-49
2023/08/06 07:27:04;;;;;;;4.25;1.30;;;22.80;99.90;;;;;;5071947;28;20089;-46
2023/08/06 07:29:29;;;;;;;2.05;0.95;;;22.40;99.90;;;;;;5071926;28;20028;-46
2023/08/06 07:31:55;;;;;;;3.08;0.90;;;22.80;99.90;;;;;;5071930;28;20042;-49
2023/08/06 07:34:21;;;;;;;3.25;0.90;;;22.80;99.90;;;;;;5071696;28;20045;-47
2023/08/06 07:36:47;;;;;;;3.80;0.95;;;23.00;99.90;;;;;;5071676;28;20101;-51
2023/08/06 07:39:12;;;;;;;3.72;1.20;;;23.40;99.90;;;;;;5071563;28;20024;-54
2023/08/06 07:41:38;;;;;;;2.08;0.80;;;23.70;99.90;;;;;;5071479;28;20008;-47
2023/08/06 07:44:04;;;;;;;1.85;1.10;;;23.50;99.90;;;;;;5071651;28;20029;-47
2023/08/06 07:46:30;;;;;;;1.73;1.05;;;23.70;99.90;;;;;;5071314;28;20083;-48
2023/08/06 07:48:55;;;;;;;2.63;1.08;;;23.70;99.90;;;;;;5071631;28;20073;-49
2023/08/06 07:51:21;;;;;;;1.48;0.90;;;23.70;99.90;;;;;;5071176;28;20028;-46
2023/08/06 07:53:47;;;;;;;1.85;0.85;;;23.60;99.90;;;;;;5071438;28;20025;-52
2023/08/06 07:56:12;;;;;;;1.60;1.05;;;23.50;99.90;;;;;;5071451;28;20096;-49
2023/08/06 07:58:38;;;;;;;1.95;0.90;;;23.30;99.90;;;;;;5071325;28;20025;-49
2023/08/06 08:01:03;;;;;;;2.50;1.15;;;23.30;99.90;;;;;;5071256;28;20032;-48
2023/08/06 08:03:29;;;;;;;1.90;1.00;;;23.50;99.90;;;;;;5070229;28;20028;-50
2023/08/06 08:05:58;;;;;;;4.53;1.35;;;23.80;99.90;;;;;;5070927;28;20031;-56
2023/08/06 08:08:24;;;;;;;5.70;1.00;;;23.70;99.90;;;;;;5070886;28;20517;-48
2023/08/06 08:10:50;;;;;;;3.25;1.10;;;23.60;99.90;;;;;;5071346;28;20024;-52
2023/08/06 08:13:15;;;;;;;1.30;0.88;;;23.50;99.90;;;;;;5070860;28;20489;-48
2023/08/06 08:15:41;;;;;;;1.77;0.85;;;23.50;99.90;;;;;;5070685;28;20021;-47
2023/08/06 08:18:07;;;;;;;1.95;1.00;;;24.10;99.90;;;;;;5070897;28;20029;-46
2023/08/06 08:20:35;;;;;;;2.40;1.10;;;23.70;99.90;;;;;;5071125;28;20126;-48
2023/08/06 08:23:01;;;;;;;1.70;0.90;;;23.50;99.90;;;;;;5070825;28;20028;-48
2023/08/06 08:25:27;;;;;;;1.67;0.85;;;23.40;99.90;;;;;;5071225;28;20108;-49
2023/08/06 08:27:56;;;;;;;2.80;0.77;;;23.40;99.90;;;;;;5070746;28;20032;-47
2023/08/06 08:30:22;;;;;;;1.08;0.80;;;23.40;99.90;;;;;;5070848;28;20086;-48
2023/08/06 08:32:48;;;;;;;2.03;0.90;;;23.40;99.90;;;;;;5070558;28;20044;-46
2023/08/06 08:35:15;;;;;;;1.58;0.90;;;23.40;99.90;;;;;;5070533;28;20129;-51
2023/08/06 08:37:42;;;;;;;1.48;0.80;;;23.90;99.90;;;;;;5070478;28;20055;-49
2023/08/06 08:40:08;;;;;;;1.35;0.73;;;23.70;99.90;;;;;;5070558;28;20020;-48
2023/08/06 08:42:35;;;;;;;2.55;1.30;;;24.00;99.90;;;;;;5070163;28;20031;-52
2023/08/06 08:45:02;;;;;;;1.70;0.93;;;24.10;99.90;;;;;;5070438;28;20021;-52
2023/08/06 08:47:27;;;;;;;1.35;0.77;;;23.80;99.30;;;;;;5070446;28;20101;-49
2023/08/06 08:49:57;;;;;;;1.58;0.90;;;23.70;99.90;;;;;;5066232;28;20021;-51
2023/08/06 08:52:25;;;;;;;1.17;0.80;;;23.40;99.90;;;;;;5070283;28;20036;-47
2023/08/06 08:54:52;;;;;;;1.38;0.88;;;23.90;99.90;;;;;;5070406;28;20129;-50
2023/08/06 08:57:18;;;;;;;2.22;1.00;;;24.10;99.90;;;;;;5070255;28;20020;-50
2023/08/06 08:59:44;;;;;;;1.65;0.70;;;24.10;99.90;;;;;;5070424;28;20029;-47
2023/08/06 09:02:15;;;;;;;1.75;0.90;;;24.40;99.90;;;;;;5070137;28;20385;-48
2023/08/06 09:04:42;;;;;;;1.83;0.90;;;24.60;99.90;;;;;;5061668;28;20040;-52
2023/08/06 09:07:10;;;;;;;2.35;1.15;;;24.70;99.90;;;;;;5069969;28;20044;-50
2023/08/06 09:09:39;;;;;;;1.63;0.93;;;24.90;99.90;;;;;;5070011;28;20025;-49
2023/08/06 09:12:14;;;;;;;2.45;1.15;;;24.60;99.90;;;;;;5069949;28;20041;-55
2023/08/06 09:14:40;;;;;;;1.50;0.90;;;24.70;99.90;;;;;;5055781;28;20525;-54
2023/08/06 09:17:06;;;;;;;1.73;0.77;;;24.60;98.50;;;;;;5070067;28;20029;-46
2023/08/06 09:19:32;;;;;;;2.92;0.95;;;24.40;99.60;;;;;;5090259;28;20388;-50
2023/08/06 09:21:58;;;;;;;1.63;1.00;;;24.30;99.70;;;;;;5090445;28;20111;-47
2023/08/06 09:24:26;;;;;;;1.90;0.98;;;24.20;99.90;;;;;;5086087;28;20016;-47
2023/08/06 09:26:51;;;;;;;1.95;1.10;;;24.80;99.90;;;;;;5082139;28;20062;-48
2023/08/06 09:29:17;;;;;;;2.25;1.00;;;24.90;98.80;;;;;;5058112;28;20033;-50
2023/08/06 09:31:47;;;;;;;1.83;0.98;;;24.80;98.80;;;;;;5069406;28;20120;-47
2023/08/06 09:34:21;;;;;;;1.63;1.00;;;25.10;99.10;;;;;;5069532;28;20118;-49
2023/08/06 09:36:50;;;;;;;2.08;1.00;;;25.40;97.80;;;;;;5069741;28;20017;-52
2023/08/06 09:39:27;;;;;;;2.13;0.77;;;25.60;98.90;;;;;;5069722;28;20028;-55
2023/08/06 09:41:57;;;;;;;1.25;0.80;;;25.80;97.30;;;;;;5069520;28;20494;-58
2023/08/06 09:44:26;;;;;;;2.33;1.10;;;25.90;97.00;;;;;;5077455;28;20020;-51
2023/08/06 09:47:03;;;;;;;1.92;0.98;;;25.80;97.80;;;;;;5069921;28;20085;-49
2023/08/06 09:49:45;;;;;;;2.08;1.00;;;25.40;98.40;;;;;;5068868;28;20029;-47
2023/08/06 09:52:12;;;;;;;2.08;1.00;;;25.30;97.50;;;;;;5073096;28;20032;-47
2023/08/06 09:54:38;;;;;;;2.33;1.10;;;24.90;98.50;;;;;;5072390;28;20553;-44
2023/08/06 09:57:05;;;;;;;2.13;1.10;;;25.00;99.60;;;;;;5078058;28;20127;-50
2023/08/06 09:59:31;;;;;;;1.98;1.10;;;25.10;99.50;;;;;;5078820;28;20090;-51
2023/08/06 10:01:58;;;;;;;1.88;1.00;;;25.60;99.20;;;;;;5072448;28;20037;-46
2023/08/06 10:04:24;;;;;;;1.73;0.88;;;25.80;98.90;;;;;;5075412;28;20055;-61
2023/08/06 10:06:50;;;;;;;3.97;1.00;;;25.70;97.30;;;;;;5067697;28;20461;-54
2023/08/06 10:09:16;;;;;;;1.40;0.88;;;25.50;97.60;;;;;;5060617;28;20469;-52
2023/08/06 10:11:47;;;;;;;2.25;1.02;;;25.80;97.00;;;;;;5069073;28;20365;-49
2023/08/06 10:14:26;;;;;;;2.00;1.00;;;25.60;97.00;;;;;;5069289;28;20087;-50
2023/08/06 10:16:52;;;;;;;;;;;25.30;96.60;;;;;;5069989;28;20025;-47
2023/08/06 10:19:18;;;;;;;1.15;0.90;;;24.20;97.50;;;;;;5069353;28;20070;-48
2023/08/06 10:22:13;;;;;;;1.90;0.90;;;23.80;99.60;;;;;;5069448;28;20020;-54
2023/08/06 10:24:57;;;;;;;1.92;0.90;;;24.00;98.90;;;;;;5069072;28;20028;-54
2023/08/06 10:27:40;;;;;;;1.88;0.80;;;24.70;99.30;;;;;;5068591;28;20025;-50
2023/08/06 10:30:25;;;;;;;1.58;0.80;;;25.20;98.30;;;;;;5058162;28;20021;-49
2023/08/06 10:32:57;;;;;;;2.30;0.90;;;25.40;98.30;;;;;;5070667;28;20036;-48
2023/08/06 10:35:53;;;;;;;3.20;1.30;;;25.30;97.10;;;;;;5070558;28;20056;-49
2023/08/06 10:38:25;;;;;;;1.67;0.80;;;25.20;96.90;;;;;;5060694;28;20025;-51
2023/08/06 10:40:53;;;;;;;2.95;0.93;;;24.30;97.40;;;;;;5068486;28;20159;-56
2023/08/06 10:43:33;;;;;;;2.72;0.90;;;24.00;99.80;;;;;;5058210;28;20021;-52
2023/08/06 10:46:01;;;;;;;2.53;1.00;;;23.90;99.90;;;;;;5057050;28;20025;-54
2023/08/06 10:48:36;;;;;;;4.15;1.00;;;24.20;99.10;;;;;;5058630;28;20477;-53
2023/08/06 10:51:02;;;;;;;1.00;0.60;;;25.00;99.30;;;;;;5054379;28;20041;-52
2023/08/06 10:53:28;;;;;;;1.17;0.80;;;25.10;97.60;;;;;;5053703;28;20423;-49
2023/08/06 10:55:54;;;;;;;1.60;0.70;;;25.00;97.70;;;;;;5061820;28;20017;-47
2023/08/06 10:58:19;;;;;;;1.45;0.80;;;24.70;97.70;;;;;;5072348;28;20456;-57
2023/08/06 11:00:46;;;;;;;1.98;0.80;;;24.10;96.30;;;;;;5072365;28;20040;-51
2023/08/06 11:03:11;;;;;;;1.30;0.80;;;24.30;99.40;;;;;;5072428;28;20036;-56
2023/08/06 11:05:37;;;;;;;2.92;0.90;;;24.10;98.10;;;;;;5072132;28;20021;-53
2023/08/06 11:08:03;;;;;;;2.50;0.90;;;24.20;97.30;;;;;;5072274;28;20115;-54
2023/08/06 11:10:29;;;;;;;1.77;0.70;;;24.30;97.90;;;;;;5072282;28;20369;-50
2023/08/06 11:12:54;;;;;;;2.20;0.70;;;24.40;98.70;;;;;;5072046;28;20068;-51
2023/08/06 11:15:23;;;;;;;2.83;0.98;;;24.80;96.50;;;;;;5072361;28;20024;-53
2023/08/06 11:17:50;;;;;;;2.03;0.95;;;24.10;97.60;;;;;;5072212;28;20074;-55
2023/08/06 11:20:16;;;;;;;3.28;1.27;;;24.10;98.60;;;;;;5072080;28;20544;-46
2023/08/06 11:22:41;;;;;;;4.97;2.13;;;24.00;98.40;;;;;;5071972;28;20060;-53
2023/08/06 11:25:07;;;;;;;2.88;1.40;;;23.80;99.50;;;;;;5069930;28;20371;-52
2023/08/06 11:27:33;;;;;;;1.92;0.80;;;24.20;98.30;;;;;;5071764;28;20040;-48
2023/08/06 11:29:59;;;;;;;4.22;1.10;;;24.60;99.00;;;;;;5070128;28;20047;-55
2023/08/06 11:32:25;;;;;;;3.75;1.38;;;25.00;97.70;;;;;;5071818;28;20083;-50
2023/08/06 11:34:50;;;;;;;2.13;0.85;;;24.60;96.40;;;;;;5069112;28;20048;-53
2023/08/06 11:37:16;;;;;;;1.33;0.70;;;23.90;97.40;;;;;;5062142;28;20430;-52
2023/08/06 11:39:48;;;;;;;1.23;0.70;;;23.20;97.50;;;;;;5071251;28;20070;-46
2023/08/06 11:42:14;;;;;;;2.47;0.60;;;22.90;99.00;;;;;;5071642;28;20037;-50
2023/08/06 11:44:44;;;;;;;1.10;0.80;;;22.60;99.10;;;;;;5071522;28;20024;-50
2023/08/06 11:47:16;;;;;;;2.15;0.80;;;23.00;99.90;;;;;;5071424;28;20034;-49
2023/08/06 11:49:47;;;;;;;2.08;0.70;;;23.70;99.50;;;;;;5071563;28;20025;-49
2023/08/06 11:52:23;;;;;;;0.47;0.47;;;24.00;98.80;;;;;;5071345;28;20032;-47
2023/08/06 11:55:07;;;;;;;1.40;0.50;;;24.30;97.10;;;;;;5071502;28;20029;-51
2023/08/06 11:57:36;;;;;;;0.50;0.50;;;24.30;97.50;;;;;;5060435;28;20025;-53
2023/08/06 12:00:04;;;;;;;2.95;0.85;;;24.80;98.90;;;;;;5071234;28;20449;-52
2023/08/06 12:02:41;;;;;;;2.25;1.15;;;24.20;95.90;;;;;;5071133;28;20025;-54
2023/08/06 12:05:14;;;;;;;1.95;0.70;;;24.00;96.60;;;;;;5071185;28;20067;-52
2023/08/06 12:07:51;;;;;;;1.00;0.60;;;23.60;97.50;;;;;;5059499;28;20028;-52
2023/08/06 12:10:19;;;;;;;0.85;0.55;;;23.00;97.70;;;;;;5071122;28;20408;-53
2023/08/06 12:12:45;;;;;;;1.30;0.60;;;23.00;98.10;;;;;;5071238;28;20124;-48
2023/08/06 12:15:11;;;;;;;1.65;0.90;;;22.90;99.10;;;;;;5071341;28;20111;-46
2023/08/06 12:17:37;;;;;;;0.82;0.50;;;23.10;99.60;;;;;;5071122;28;20024;-49
2023/08/06 12:20:04;;;;;;;1.02;0.70;;;23.10;99.10;;;;;;5071266;28;20028;-50
2023/08/06 12:22:35;;;;;;;1.08;0.60;;;23.00;98.70;;;;;;5070814;28;20032;-48
2023/08/06 12:25:03;;;;;;;0.70;0.60;;;23.30;98.20;;;;;;5069455;28;20463;-55
2023/08/06 12:27:29;;;;;;;1.33;0.80;;;23.10;97.80;;;;;;5070490;28;20032;-52
2023/08/06 12:29:54;;;;;;;3.15;0.88;;;22.80;98.00;;;;;;5070641;28;20023;-54
2023/08/06 12:32:20;;;;;;;1.52;0.70;;;22.60;99.40;;;;;;5070593;28;20044;-51
2023/08/06 12:34:46;;;;;;;1.98;0.60;;;22.70;97.80;;;;;;5070870;28;20132;-49
2023/08/06 12:37:11;;;;;;;2.53;0.80;;;22.40;98.00;;;;;;5071097;28;20028;-53
2023/08/06 12:39:37;;;;;;;1.05;0.70;;;22.50;98.30;;;;;;5070795;28;20041;-48
2023/08/06 12:42:04;;;;;;;0.75;0.43;;;22.30;99.90;;;;;;5071062;28;20107;-53
2023/08/06 12:44:30;;;;;;;2.08;0.88;;;22.50;99.20;;;;;;5070916;28;20534;-55
2023/08/06 12:46:56;;;;;;;0.82;0.55;;;22.00;97.70;;;;;;5070200;28;20062;-52
2023/08/06 12:49:22;;;;;;;0.70;0.55;;;22.00;97.80;;;;;;5070653;28;20035;-52